Stanton Point, Illinois
Current Conditions -  °F | °C
As of 3:55 PM on Saturday 25 Oct 2014 (Local Time) from KUGN Reporting Station
Clear Clear  
Wind Chill: 69°   Ceiling: Unl
Heat Index: 69°   Visibility: 10mi
Dew Point: 28°   Wind: 12mph
Humidity: 22%   Direction: 280°W
Pressure: 29.89"   Gusts: 23mph
Location:  42.367°N, 88.1557°W
Report Text: KUGN 252055Z 28010G20KT 10SM CLR 21/M02 A2989 RMK AO2 SLP116 T02061022 56005
Loading
Personal Weather Stations






























Interactive Weather Map
Tropical Storm Tracking
New forecast layout! Learn more

10-Day Weather Forecast

Advertisements
Track Severe Weather on mobile